Briefing drone pour Fontaine

Rechercher une autre localisation

Conditions de vol :


Nous sommes le : Mercredi 07 décembre 2022
Il est 21:13 UTC (22:13 LT)

Lever de soleil : 06:36 UTC (07:36 LT)
Coucher de soleil : 16:21 UTC (17:21 LT)

Météo

L'essentiel des conditions de vol

VIGILANCE MÉTÉO FRANCE - Isère (38)
Vigilance Jaune : Avalanches
METAR de LFLS
LFLS 072100Z AUTO VRB03KT 7000 OVC019 02/01 Q1014

Date d'émission: 07/12/2022
Heure d'émission: 21:00 UTC
Vent: Variable 3 KT (6 km/h)
Visibilité horizontale: 7000 m
Plafond :
- Couvert à 1900ft (579m)
Température: 2 °C
Point de rosée: 1 °C
Humidité: 93%
Pression (QNH): 1014 hPa
TAF de LFLS
LFLS 072011Z 0720/0815 CNL

Conditions prévues :

Heure d'émission : Bulletin éffectué le 07 à 20:00 UTC
Prévision : Valide du 07 a 20:00 UTC au 08 a 15:00 UTC
Nuages : à 0ft (0 m)
WEBCAM POUR FONTAINE

Réglementation

Voler en sécurité

CARTES AERONAUTIQUE 1/500.000
CARTE AZBA (Reseau basse altitude)
CARTES VAC (LFLS)
SUP AIP




Chargement des AIP...
NOTAM (FONTAINE + Terrain à proximité / FIR )




Chargement des NOTAMS...
CONTACT PREFECTURE 38


Avertissement : Les données mises à disposition sont indicatives. Oxygène Drone ne pourra être tenu responsable de dégâts causés aux biens et aux personnes.